Flight Track Log - Related Links

Times and Time Zones

All times are in EST time to prevent confusion due to time zone crossing. See the RPA3228 flight status page for this flight to view local times or setup timezone preferences in your user account.

Time Position Orientation Groundspeed Altitude Reporting Facility
EST Latitude Longitude Course Direction KTS MPH feet Rate Location/Type
Wed 07:01:24 AM 36.1167 -86.6833 56° Northeast 135 155 1,400  Level Nashville TRACON
Wed 07:01:36 AM 36.1167 -86.6833 56° Northeast 127 146 2,300 2,339 Climbing Nashville TRACON
Wed 07:02:23 AM 36.0783 -86.6589 153° Southeast 204 235 3,700 2,636 Climbing Memphis Center
Wed 07:03:23 AM 36.0842 -86.5714 85° East 254 292 7,000 3,250 Climbing Memphis Center
Wed 07:04:00 AM 36.2766 -86.2205 68° East  Level Estimated
Wed 07:04:23 AM 36.1142 -86.4697 70° East 273 314 10,200  Level Memphis Center
Wed 07:05:00 AM 36.3143 -86.1058 68° East  Level Estimated
Wed 07:05:23 AM 36.1464 -86.3678 69° East 300 345 13,200  Level Memphis Center
Wed 07:06:00 AM 36.3520 -85.9910 56° Northeast  Level Estimated
Wed 07:06:23 AM 36.1803 -86.2558 69° East 331 381 16,000  Level Memphis Center
Wed 07:07:23 AM 36.2139 -86.1383 70° East 348 400 18,000 2,000 Climbing Memphis Center
Wed 07:08:23 AM 36.2536 -86.0153 68° East 375 432 20,000 1,850 Climbing Memphis Center
Wed 07:09:23 AM 36.2889 -85.9000 69° East 380 437 21,700 1,854 Climbing Memphis Center
Wed 07:10:26 AM 36.3364 -85.7678 66° East 413 475 23,800 1,805 Climbing Indianapolis Center
Wed 07:11:26 AM 36.3972 -85.6411 59° Northeast 423 487 25,400 1,587 Climbing Indianapolis Center
Wed 07:12:27 AM 36.4603 -85.5089 59° Northeast 440 506 27,000 1,721 Climbing Indianapolis Center
Wed 07:13:28 AM 36.5242 -85.3722 60° Northeast 452 520 28,900 1,918 Climbing Indianapolis Center
Wed 07:14:29 AM 36.5883 -85.2342 60° Northeast 457 526 30,900 1,869 Climbing Indianapolis Center
Wed 07:15:30 AM 36.6419 -85.0928 65° Northeast 453 521 32,700 1,721 Climbing Indianapolis Center
Wed 07:16:31 AM 36.6872 -84.9439 69° East 454 522 34,400 1,131 Climbing Indianapolis Center
Wed 07:17:32 AM 36.7414 -84.7642 69° East 460 529 35,000 295 Climbing Indianapolis Center
Wed 07:18:33 AM 36.7869 -84.6164 69° East 457 526 35,000  Level Indianapolis Center
Wed 07:19:34 AM 36.8286 -84.4797 69° East 456 525 35,000  Level Indianapolis Center
Wed 07:20:35 AM 36.8728 -84.3317 70° East 453 521 35,000  Level Indianapolis Center
Wed 07:21:37 AM 36.9175 -84.1831 69° East 455 524 35,000  Level Indianapolis Center
Wed 07:22:38 AM 36.9611 -84.0350 70° East 453 521 35,000  Level Indianapolis Center
Wed 07:23:39 AM 37.0050 -83.8861 70° East 456 525 35,000  Level Indianapolis Center
Wed 07:24:40 AM 37.0486 -83.7386 70° East 451 519 35,000  Level Indianapolis Center
Wed 07:25:41 AM 37.1000 -83.5644 70° East 453 521 35,000  Level Indianapolis Center
Wed 07:26:42 AM 37.1436 -83.4153 70° East 452 520 35,000  Level Indianapolis Center
Wed 07:27:44 AM 37.1872 -83.2636 70° East 456 525 35,000  Level Indianapolis Center
Wed 07:28:45 AM 37.2314 -83.1144 70° East 453 521 35,000  Level Indianapolis Center
Wed 07:29:46 AM 37.2747 -82.9628 70° East 455 524 35,000  Level Indianapolis Center
Wed 07:30:47 AM 37.3181 -82.8117 70° East 456 525 35,000  Level Indianapolis Center
Wed 07:31:49 AM 37.3614 -82.6606 70° East 456 525 35,000  Level Indianapolis Center
Wed 07:32:50 AM 37.4022 -82.5111 71° East 452 520 35,000  Level Indianapolis Center
Wed 07:33:51 AM 37.4436 -82.3622 71° East 450 518 35,000  Level Indianapolis Center
Wed 07:34:53 AM 37.4856 -82.2131 70° East 450 518 35,000  Level Indianapolis Center
Wed 07:35:54 AM 37.5269 -82.0639 71° East 451 519 35,000  Level Indianapolis Center
Wed 07:36:55 AM 37.5683 -81.9156 71° East 449 517 35,000  Level Indianapolis Center
Wed 07:37:57 AM 37.6158 -81.7406 71° East 451 519 35,000  Level Indianapolis Center
Wed 07:38:58 AM 37.6564 -81.5903 71° East 452 520 35,000  Level Indianapolis Center
Wed 07:40:00 AM 37.6944 -81.4489 71° East 451 519 35,000  Level Indianapolis Center
Wed 07:41:01 AM 37.7347 -81.3025 71° East 452 520 35,000  Level Indianapolis Center
Wed 07:42:03 AM 37.7725 -81.1561 72° East 451 519 35,000  Level Indianapolis Center
Wed 07:43:04 AM 37.8286 -80.9892 67° East 450 518 35,000  Level Indianapolis Center
Wed 07:44:05 AM 37.8797 -80.8442 66° East 453 521 35,000  Level Indianapolis Center
Wed 07:45:07 AM 37.9303 -80.7017 66° East 446 513 35,000  Level Indianapolis Center
Wed 07:46:08 AM 37.9822 -80.5558 66° East 451 519 35,000  Level Indianapolis Center
Wed 07:47:10 AM 38.0403 -80.3917 66° East 451 519 35,000  Level Indianapolis Center
Wed 07:48:11 AM 38.0839 -80.2644 66° East 453 521 35,000 -732 Level Indianapolis Center
Wed 07:49:13 AM 38.1439 -80.0947 66° East 484 557 33,500 -1,463 Descending Indianapolis Center
Wed 07:50:14 AM 38.2044 -79.9236 66° East 532 612 32,000 -732 Descending Indianapolis Center
Wed 07:51:16 AM 38.2769 -79.7194 66° East 538 619 32,000  Level Indianapolis Center
Wed 07:52:23 AM 38.3372 -79.5572 65° Northeast 537 618 32,000 -614 Level Washington Center
Wed 07:53:23 AM 38.3992 -79.3803 66° East 537 618 30,700 -1,780 Descending Washington Center
Wed 07:54:21 AM 38.4444 -79.1997 72° East 532 612 28,500 -1,850 Descending Washington Center
Wed 07:55:23 AM 38.4747 -79.0181 78° East 526 605 27,000 -1,450 Descending Washington Center
Wed 07:56:21 AM 38.5053 -78.8153 79° East 526 605 25,600 -2,085 Descending Washington Center
Wed 07:57:21 AM 38.5328 -78.6414 79° East 519 597 22,900 -1,983 Descending Washington Center
Wed 07:58:22 AM 38.5597 -78.4778 78° East 497 572 21,600 -1,613 Descending Washington Center
Wed 07:59:20 AM 38.5844 -78.3194 79° East 469 540 19,700 -1,765 Descending Washington Center
Wed 08:00:21 AM 38.6208 -78.1772 72° East 442 509 18,100 -1,623 Descending Washington Center
Wed 08:01:22 AM 38.6611 -78.0456 69° East 413 475 16,400 -1,770 Descending Washington Center
Wed 08:02:23 AM 38.7033 -77.9219 66° East 392 451 14,500 -1,831 Descending Washington Center
Wed 08:03:20 AM 38.7428 -77.8114 65° Northeast 363 418 12,800 -1,525 Descending Washington Center
Wed 08:04:21 AM 38.8006 -77.7281 48° Northeast 327 376 11,500 -1,339 Descending Washington Center
Wed 08:05:21 AM 38.8583 -77.6469 48° Northeast 309 356 10,100 -1,350 Descending Washington Center
Wed 08:06:21 AM 38.9097 -77.5711 49° Northeast 304 350 8,800 -1,145 Descending Washington Center
Wed 08:07:11 AM 38.9500 -77.4833 59° Northeast 292 336 8,000 -1,405 Descending Potomac TRACON
Wed 08:08:12 AM 38.9667 -77.3833 78° East 282 325 6,200 -1,500 Descending Potomac TRACON
Wed 08:09:11 AM 38.9833 -77.2833 78° East 266 306 5,000 -1,109 Descending Potomac TRACON
Wed 08:10:11 AM 38.9833 -77.2000 90° East 221 254 4,000 -1,421 Descending Potomac TRACON
Wed 08:11:05 AM 38.9667 -77.1500 113° Southeast 207 238 2,300 -1,105 Descending Potomac TRACON
Wed 08:12:05 AM 38.9333 -77.1167 142° Southeast 160 184 1,900 -626 Descending Potomac TRACON
Wed 08:13:00 AM 38.9000 -77.0833 142° Southeast 148 170 1,100 -783 Descending Potomac TRACON
Wed 08:14:00 AM 38.8833 -77.0500 123° Southeast 121 139 400 -700 Descending Potomac TRACON

Login

Don't have an account? Register now (free) for customized features, flight alerts, and more!